Time;durP1;ratioP1;P1;durP2;ratioP2;P2;SDS_P1;SDS_P2;PMS_P1;PMS_P2;Temp;Humidity;BMP_temperature;BMP_pressure;BME280_temperature;BME280_humidity;BME280_pressure;Samples;Min_cycle;Max_cycle;Signal;HPM_P1;HPM_P2
2022/09/14 00:00:25;;;;;;;7.15;1.35;;;15.00;99.90;;;;;;5019759;28;20143;-88
2022/09/14 00:02:51;;;;;;;6.75;1.45;;;14.20;99.90;;;;;;5020308;28;20093;-87
2022/09/14 00:05:17;;;;;;;6.68;1.58;;;13.30;99.90;;;;;;5021517;28;20108;-87
2022/09/14 00:07:42;;;;;;;4.97;1.52;;;14.30;99.90;;;;;;5023890;28;20032;-88
2022/09/14 00:10:09;;;;;;;6.88;1.65;;;13.10;99.90;;;;;;5040585;28;20052;-88
2022/09/14 00:12:35;;;;;;;3.65;1.55;;;14.30;99.90;;;;;;5024411;28;20044;-87
2022/09/14 00:15:00;;;;;;;8.18;2.05;;;14.30;99.90;;;;;;5038667;28;20036;-87
2022/09/14 00:17:26;;;;;;;9.27;2.20;;;14.30;99.90;;;;;;5039121;28;20101;-88
2022/09/14 00:19:52;;;;;;;6.80;1.70;;;14.30;99.90;;;;;;5036928;28;20056;-88
2022/09/14 00:22:18;;;;;;;7.90;1.38;;;14.30;99.90;;;;;;5019305;28;20481;-87
2022/09/14 00:24:44;;;;;;;8.90;1.73;;;14.30;99.90;;;;;;5020783;28;20033;-88
2022/09/14 00:27:10;;;;;;;4.47;1.15;;;14.30;99.90;;;;;;5036205;28;20044;-88
2022/09/14 00:29:36;;;;;;;6.85;1.60;;;14.30;99.90;;;;;;5052775;28;20533;-88
2022/09/14 00:32:04;;;;;;;7.63;2.35;;;14.30;99.90;;;;;;5052301;28;20044;-88
2022/09/14 00:34:30;;;;;;;12.88;1.50;;;14.30;99.90;;;;;;5035880;28;20040;-88
2022/09/14 00:36:55;;;;;;;9.00;1.88;;;14.30;99.90;;;;;;5035018;28;20119;-87
2022/09/14 00:39:23;;;;;;;6.18;1.38;;;14.30;99.90;;;;;;5034721;28;20041;-87
2022/09/14 00:41:50;;;;;;;6.38;1.30;;;14.30;99.90;;;;;;5035083;28;20482;-87
2022/09/14 00:44:16;;;;;;;5.63;1.67;;;14.80;99.90;;;;;;5033588;28;20481;-88
2022/09/14 00:46:47;;;;;;;5.80;1.65;;;15.30;99.90;;;;;;5051648;28;20052;-88
2022/09/14 00:49:18;;;;;;;4.53;1.27;;;14.20;99.90;;;;;;5033886;28;20048;-88
2022/09/14 00:51:59;;;;;;;7.35;1.58;;;14.20;99.90;;;;;;5033575;28;20438;-86
2022/09/14 00:54:26;;;;;;;4.60;1.40;;;14.20;99.90;;;;;;5051229;28;20056;-87
2022/09/14 00:57:02;;;;;;;2.47;0.77;;;14.50;99.90;;;;;;5034589;28;20132;-88
2022/09/14 00:59:31;;;;;;;9.40;1.92;;;14.20;99.90;;;;;;5034358;28;20106;-88
2022/09/14 01:01:57;;;;;;;6.53;1.70;;;14.20;99.90;;;;;;5033303;28;20085;-88
2022/09/14 01:04:23;;;;;;;6.40;1.38;;;14.40;99.90;;;;;;5017890;28;20062;-88
2022/09/14 01:07:17;;;;;;;2.78;1.13;;;14.20;99.90;;;;;;5034247;28;20055;-88
2022/09/14 01:09:56;;;;;;;3.67;1.02;;;14.10;99.90;;;;;;5050312;28;20502;-88
2022/09/14 01:13:00;;;;;;;4.97;0.90;;;14.60;99.90;;;;;;5051254;28;20044;-88
2022/09/14 01:15:31;;;;;;;3.60;1.20;;;14.20;99.90;;;;;;5050804;28;20589;-88
2022/09/14 01:18:13;;;;;;;8.73;1.70;;;14.20;99.90;;;;;;5032981;28;20055;-88
2022/09/14 01:20:57;;;;;;;3.70;1.42;;;14.20;99.90;;;;;;5050535;28;20123;-88
2022/09/14 01:23:41;;;;;;;6.10;1.08;;;14.20;99.90;;;;;;5050098;28;20053;-88
2022/09/14 01:26:30;;;;;;;5.07;1.30;;;14.20;99.90;;;;;;5033365;28;20037;-88
2022/09/14 01:29:07;;;;;;;11.00;1.67;;;14.20;99.90;;;;;;5050834;28;20045;-88
2022/09/14 01:31:47;;;;;;;6.15;1.10;;;14.20;99.90;;;;;;5032556;28;20115;-87
2022/09/14 01:34:45;;;;;;;4.32;1.50;;;14.30;99.90;;;;;;5034288;28;20419;-88
2022/09/14 01:37:13;;;;;;;2.38;0.90;;;14.30;99.90;;;;;;5025270;28;20060;-88
2022/09/14 01:39:47;;;;;;;5.90;2.17;;;14.90;99.90;;;;;;5032847;28;20040;-88
2022/09/14 01:42:15;;;;;;;4.53;1.17;;;14.40;99.90;;;;;;5033549;28;20491;-88
2022/09/14 01:44:46;;;;;;;2.47;1.00;;;14.40;99.90;;;;;;5032724;28;20044;-88
2022/09/14 01:47:19;;;;;;;3.85;1.42;;;14.50;99.90;;;;;;5033465;28;20091;-88
2022/09/14 01:49:47;;;;;;;;;;;15.00;99.90;;;;;;5034347;28;20156;-88
2022/09/14 01:52:21;;;;;;;5.72;1.13;;;14.50;99.90;;;;;;5049238;28;19920;-87
2022/09/14 01:54:47;;;;;;;4.95;0.90;;;15.10;99.90;;;;;;5033602;28;20059;-88
2022/09/14 01:57:35;;;;;;;3.13;0.80;;;14.60;99.90;;;;;;5033046;28;20041;-88
2022/09/14 02:00:06;;;;;;;3.88;0.80;;;14.80;99.90;;;;;;5050137;28;20074;-87
2022/09/14 02:02:43;;;;;;;6.80;0.98;;;14.60;99.90;;;;;;5051535;28;20495;-88
2022/09/14 02:05:18;;;;;;;4.18;1.08;;;14.70;99.90;;;;;;5036111;28;20135;-88
2022/09/14 02:07:44;;;;;;;3.42;0.70;;;14.70;99.90;;;;;;5036884;28;20047;-87
2022/09/14 02:10:12;;;;;;;3.65;1.33;;;14.20;99.90;;;;;;5036074;28;20067;-88
2022/09/14 02:12:38;;;;;;;6.18;1.00;;;14.80;99.90;;;;;;5054121;28;20080;-87
2022/09/14 02:15:07;;;;;;;6.40;1.20;;;14.80;99.90;;;;;;5036240;28;20510;-88
2022/09/14 02:17:33;;;;;;;5.70;0.90;;;14.80;99.90;;;;;;5052900;28;20066;-88
2022/09/14 02:20:03;;;;;;;4.45;0.85;;;14.80;99.90;;;;;;5036116;28;20109;-88
2022/09/14 02:22:30;;;;;;;7.60;1.58;;;14.80;99.90;;;;;;5035064;28;20036;-88
2022/09/14 02:24:56;;;;;;;8.25;1.08;;;15.30;99.90;;;;;;5052465;28;20060;-88
2022/09/14 02:27:22;;;;;;;3.67;0.80;;;14.90;99.90;;;;;;5034424;28;20048;-88
2022/09/14 02:29:48;;;;;;;5.15;1.17;;;14.90;99.90;;;;;;5036210;28;20047;-88
2022/09/14 02:32:32;;;;;;;5.90;1.13;;;14.90;99.90;;;;;;5051395;28;20072;-87
2022/09/14 02:35:22;;;;;;;6.47;1.25;;;14.90;99.90;;;;;;5034193;28;20125;-87
2022/09/14 02:38:16;;;;;;;4.53;1.20;;;14.80;99.90;;;;;;5035638;28;20045;-87
2022/09/14 02:41:21;;;;;;;4.55;0.90;;;14.90;99.90;;;;;;5034724;28;20342;-88
2022/09/14 02:44:06;;;;;;;6.20;1.02;;;14.90;99.90;;;;;;5044575;28;20530;-87
2022/09/14 02:46:50;;;;;;;6.00;1.00;;;14.90;99.90;;;;;;5052363;28;20048;-87
2022/09/14 02:49:43;;;;;;;4.60;0.88;;;14.90;99.90;;;;;;5051571;28;20131;-87
2022/09/14 02:52:18;;;;;;;5.87;0.90;;;14.90;99.90;;;;;;5034178;28;20102;-88
2022/09/14 02:54:44;;;;;;;5.00;1.05;;;14.90;99.90;;;;;;5052209;28;20507;-87
2022/09/14 02:57:10;;;;;;;3.78;0.75;;;14.90;99.90;;;;;;5033883;28;20048;-87
2022/09/14 02:59:35;;;;;;;4.50;0.80;;;15.50;99.90;;;;;;5035221;28;20052;-87
2022/09/14 03:02:01;;;;;;;4.22;0.88;;;14.90;99.90;;;;;;5050859;28;20037;-87
2022/09/14 03:04:27;;;;;;;8.15;1.20;;;14.90;99.90;;;;;;5034723;28;20561;-87
2022/09/14 03:06:53;;;;;;;7.03;1.50;;;14.90;99.90;;;;;;5035245;28;20036;-87
2022/09/14 03:09:19;;;;;;;3.17;1.02;;;14.90;99.90;;;;;;5050415;28;20373;-87
2022/09/14 03:11:44;;;;;;;7.63;1.23;;;14.90;99.90;;;;;;5034775;28;20494;-88
2022/09/14 03:14:11;;;;;;;7.85;1.90;;;15.80;99.90;;;;;;5015825;28;20041;-88
2022/09/14 03:16:37;;;;;;;9.32;1.65;;;14.90;99.90;;;;;;5051635;28;20043;-87
2022/09/14 03:19:04;;;;;;;5.05;1.38;;;15.40;99.90;;;;;;5033205;28;20044;-87
2022/09/14 03:21:31;;;;;;;4.10;1.45;;;15.00;99.90;;;;;;5034222;28;20499;-88
2022/09/14 03:23:57;;;;;;;3.72;1.20;;;14.90;99.90;;;;;;5018078;28;20542;-88
2022/09/14 03:26:24;;;;;;;5.55;1.15;;;15.30;99.90;;;;;;5032816;28;20181;-88
2022/09/14 03:28:51;;;;;;;4.95;1.50;;;15.00;99.90;;;;;;5034513;28;20170;-87
2022/09/14 03:31:18;;;;;;;4.40;1.08;;;14.90;99.90;;;;;;5033371;28;20055;-87
2022/09/14 03:33:43;;;;;;;7.43;1.15;;;15.00;99.90;;;;;;5018627;28;20051;-87
2022/09/14 03:36:11;;;;;;;5.70;1.00;;;15.00;99.90;;;;;;5032727;28;20040;-88
2022/09/14 03:38:37;;;;;;;5.53;2.65;;;15.00;99.90;;;;;;5050614;28;20040;-88
2022/09/14 03:41:09;;;;;;;6.00;1.48;;;15.00;99.90;;;;;;5017408;28;20322;-88
2022/09/14 03:43:35;;;;;;;7.97;1.30;;;15.00;99.90;;;;;;5032672;28;20056;-88
2022/09/14 03:46:09;;;;;;;4.40;1.02;;;15.00;99.90;;;;;;5050694;28;20040;-88
2022/09/14 03:48:35;;;;;;;7.82;1.85;;;15.00;99.90;;;;;;5032633;28;20040;-87
2022/09/14 03:51:03;;;;;;;8.13;1.38;;;15.00;99.90;;;;;;5051138;28;20047;-87
2022/09/14 03:53:29;;;;;;;6.50;1.13;;;15.00;99.90;;;;;;5017673;28;20390;-88
2022/09/14 03:55:55;;;;;;;10.02;1.15;;;15.00;99.90;;;;;;5033541;28;20060;-87
2022/09/14 03:58:21;;;;;;;4.28;1.60;;;15.00;99.90;;;;;;5050287;28;20132;-88
2022/09/14 04:00:47;;;;;;;6.78;1.40;;;15.00;99.90;;;;;;5032595;28;20109;-88
2022/09/14 04:03:13;;;;;;;9.73;1.70;;;15.00;99.90;;;;;;5033869;28;20040;-87
2022/09/14 04:05:39;;;;;;;5.20;1.50;;;15.00;99.90;;;;;;5032797;28;20139;-87
2022/09/14 04:08:04;;;;;;;5.75;1.85;;;15.00;99.90;;;;;;5034250;28;20038;-86
2022/09/14 04:10:30;;;;;;;3.15;1.42;;;15.70;99.90;;;;;;5016094;28;20036;-88
2022/09/14 04:12:57;;;;;;;4.20;1.70;;;15.00;99.90;;;;;;5050309;28;20045;-87
2022/09/14 04:15:23;;;;;;;3.83;1.48;;;15.00;99.90;;;;;;5049881;28;20090;-88
2022/09/14 04:17:49;;;;;;;8.02;1.50;;;15.00;99.90;;;;;;5049258;28;20048;-87
2022/09/14 04:20:15;;;;;;;4.93;1.50;;;15.40;99.90;;;;;;5033183;28;20483;-87
2022/09/14 04:22:40;;;;;;;7.95;1.90;;;15.10;99.90;;;;;;5048478;28;20189;-87
2022/09/14 04:25:06;;;;;;;8.13;1.85;;;15.00;99.90;;;;;;5033578;28;20131;-87
2022/09/14 04:27:32;;;;;;;9.07;1.30;;;15.10;99.90;;;;;;5031877;28;20048;-87
2022/09/14 04:29:58;;;;;;;5.10;1.65;;;15.00;99.90;;;;;;5033742;28;20036;-87
2022/09/14 04:32:24;;;;;;;6.28;1.35;;;15.10;99.90;;;;;;5049569;28;20051;-88
2022/09/14 04:34:50;;;;;;;6.72;1.55;;;15.00;99.90;;;;;;5015602;28;20040;-87
2022/09/14 04:37:15;;;;;;;5.00;0.90;;;15.00;99.90;;;;;;5033454;28;20061;-88
2022/09/14 04:39:41;;;;;;;9.40;1.33;;;15.00;99.90;;;;;;5015263;28;20478;-87
2022/09/14 04:42:07;;;;;;;8.07;1.52;;;16.30;99.90;;;;;;5033684;28;20056;-87
2022/09/14 04:44:33;;;;;;;2.67;0.95;;;15.10;99.90;;;;;;5032493;28;20048;-87
2022/09/14 04:46:58;;;;;;;3.65;1.80;;;16.00;99.90;;;;;;5033573;28;20037;-88
2022/09/14 04:49:24;;;;;;;6.63;1.60;;;15.60;99.90;;;;;;5015861;28;20076;-87
2022/09/14 04:51:50;;;;;;;4.93;1.50;;;15.10;99.90;;;;;;5031890;28;20166;-88
2022/09/14 04:54:17;;;;;;;5.35;1.63;;;15.10;99.90;;;;;;5032822;28;20044;-87
2022/09/14 04:56:43;;;;;;;14.65;1.45;;;15.10;99.90;;;;;;5015137;28;20076;-88
2022/09/14 04:59:09;;;;;;;6.28;1.65;;;14.20;99.90;;;;;;5033421;28;20036;-88
2022/09/14 05:01:38;;;;;;;6.55;1.40;;;15.10;99.90;;;;;;5031387;28;20052;-87
2022/09/14 05:04:04;;;;;;;8.23;1.42;;;15.80;99.90;;;;;;5033684;28;20055;-88
2022/09/14 05:06:33;;;;;;;2.97;1.42;;;15.10;99.90;;;;;;5032332;28;20036;-89
2022/09/14 05:09:00;;;;;;;6.88;1.63;;;15.10;99.90;;;;;;5048627;28;20076;-89
2022/09/14 05:11:31;;;;;;;7.07;1.85;;;15.80;99.90;;;;;;5016383;28;20499;-86
2022/09/14 05:13:59;;;;;;;8.70;2.30;;;15.10;99.90;;;;;;5048497;28;20040;-89
2022/09/14 05:16:28;;;;;;;2.35;1.38;;;13.90;99.90;;;;;;5033461;28;20044;-88
2022/09/14 05:19:00;;;;;;;5.95;1.40;;;15.10;99.90;;;;;;5031402;28;20520;-93
2022/09/14 05:21:27;;;;;;;6.90;2.15;;;15.10;99.90;;;;;;5049589;28;20506;-90
2022/09/14 05:24:00;;;;;;;6.50;1.60;;;15.10;99.90;;;;;;5033661;28;20040;-91
2022/09/14 05:26:27;;;;;;;6.93;1.53;;;15.10;99.90;;;;;;5033019;28;20052;-93
2022/09/14 05:28:55;;;;;;;4.22;1.60;;;15.10;99.90;;;;;;5034350;28;20634;-94
2022/09/14 05:31:22;;;;;;;5.80;1.60;;;15.10;99.90;;;;;;5048900;28;20044;-88
2022/09/14 05:33:48;;;;;;;5.57;2.30;;;15.10;99.90;;;;;;5033843;28;20465;-90
2022/09/14 05:36:14;;;;;;;4.07;1.40;;;15.10;99.90;;;;;;5032372;28;20116;-91
2022/09/14 05:38:40;;;;;;;5.72;2.10;;;15.20;99.90;;;;;;5020873;28;20044;-89
2022/09/14 05:41:08;;;;;;;3.30;1.40;;;15.20;99.90;;;;;;5036895;28;20455;-89
2022/09/14 05:43:34;;;;;;;4.47;1.35;;;15.10;99.90;;;;;;5052197;28;20054;-89
2022/09/14 05:46:05;;;;;;;3.80;1.50;;;15.20;99.90;;;;;;5020032;28;20494;-88
2022/09/14 05:48:32;;;;;;;6.32;1.88;;;15.80;99.90;;;;;;5051709;28;20051;-88
2022/09/14 05:50:59;;;;;;;6.43;2.03;;;15.30;99.90;;;;;;5036825;28;20119;-88
2022/09/14 05:53:25;;;;;;;4.10;1.50;;;15.30;99.90;;;;;;5052283;28;20595;-90
2022/09/14 05:56:11;;;;;;;3.00;1.25;;;15.30;99.90;;;;;;5019861;28;20524;-88
2022/09/14 05:58:38;;;;;;;4.68;1.92;;;15.30;99.90;;;;;;5036404;28;20083;-88
2022/09/14 06:01:10;;;;;;;4.38;2.10;;;15.40;99.90;;;;;;5038137;28;20113;-94
2022/09/14 06:03:36;;;;;;;8.57;3.83;;;15.40;99.90;;;;;;5077507;28;20123;-94
2022/09/14 06:06:04;;;;;;;5.03;1.98;;;15.50;99.90;;;;;;5071593;28;20721;-89
2022/09/14 06:08:30;;;;;;;7.32;1.80;;;15.40;99.90;;;;;;5036600;28;20049;-90
2022/09/14 06:10:56;;;;;;;2.05;0.77;;;15.50;99.90;;;;;;5036042;28;20441;-90
2022/09/14 06:13:22;;;;;;;3.17;1.05;;;15.40;99.90;;;;;;5052999;28;20643;-89
2022/09/14 06:15:48;;;;;;;5.45;1.20;;;15.50;99.90;;;;;;5020522;28;20040;-90
2022/09/14 06:18:14;;;;;;;5.97;1.20;;;15.50;99.90;;;;;;5018810;28;20510;-90
2022/09/14 06:20:48;;;;;;;1.98;0.60;;;15.60;99.90;;;;;;5019874;28;20060;-90
2022/09/14 06:23:13;;;;;;;5.70;1.67;;;15.60;99.90;;;;;;5036419;28;20091;-90
2022/09/14 06:25:39;;;;;;;2.95;1.00;;;15.70;99.90;;;;;;5071657;28;20372;-89
2022/09/14 06:28:04;;;;;;;2.63;0.80;;;15.70;99.90;;;;;;5035271;28;20076;-90
2022/09/14 06:30:30;;;;;;;1.92;0.63;;;15.70;99.90;;;;;;5052169;28;20064;-89
2022/09/14 06:32:56;;;;;;;4.68;0.63;;;15.90;99.90;;;;;;5019719;28;20083;-90
2022/09/14 06:35:21;;;;;;;7.85;2.47;;;15.80;99.90;;;;;;5018971;28;20060;-90
2022/09/14 06:37:47;;;;;;;6.80;2.10;;;15.80;99.90;;;;;;5019593;28;20041;-90
2022/09/14 06:40:13;;;;;;;5.43;1.45;;;15.80;99.90;;;;;;5050878;28;20047;-89
2022/09/14 06:42:38;;;;;;;8.80;1.15;;;15.90;99.90;;;;;;5020301;28;20040;-88
2022/09/14 06:45:05;;;;;;;4.25;0.80;;;16.00;99.90;;;;;;5051575;28;20045;-90
2022/09/14 06:47:32;;;;;;;6.63;1.10;;;16.00;99.90;;;;;;5035789;28;20045;-90
2022/09/14 06:49:58;;;;;;;9.20;1.10;;;16.00;99.90;;;;;;5036324;28;20051;-90
2022/09/14 06:52:23;;;;;;;4.40;1.00;;;16.00;99.90;;;;;;5017892;28;20072;-90
2022/09/14 06:54:49;;;;;;;2.85;0.70;;;16.10;99.90;;;;;;5035841;28;20094;-90
2022/09/14 06:57:15;;;;;;;7.85;0.93;;;16.10;99.90;;;;;;5017904;28;20405;-90
2022/09/14 06:59:40;;;;;;;3.33;0.88;;;16.20;99.90;;;;;;5019337;28;20041;-90
2022/09/14 07:02:08;;;;;;;6.18;0.90;;;16.30;99.90;;;;;;5017620;28;20055;-90
2022/09/14 07:04:38;;;;;;;8.38;1.77;;;16.60;99.90;;;;;;5035464;28;20044;-90
2022/09/14 07:07:04;;;;;;;5.45;1.80;;;17.20;99.90;;;;;;5035618;28;20044;-90
2022/09/14 07:09:30;;;;;;;6.93;0.85;;;16.40;99.90;;;;;;5050551;28;20032;-90
2022/09/14 07:11:56;;;;;;;5.05;0.90;;;16.10;99.90;;;;;;5019429;28;20044;-90
2022/09/14 07:14:22;;;;;;;5.25;1.00;;;15.50;99.90;;;;;;5033950;28;20037;-90
2022/09/14 07:16:48;;;;;;;3.53;0.93;;;16.60;99.90;;;;;;5035618;28;20052;-90
2022/09/14 07:19:14;;;;;;;5.85;0.65;;;16.60;99.90;;;;;;5017311;28;20048;-90
2022/09/14 07:21:41;;;;;;;6.50;0.90;;;16.70;99.90;;;;;;5035115;28;20340;-90
2022/09/14 07:24:07;;;;;;;9.35;1.20;;;16.80;99.90;;;;;;5035363;28;20423;-90
2022/09/14 07:26:38;;;;;;;8.65;1.08;;;17.30;99.90;;;;;;5034352;28;20080;-91
2022/09/14 07:29:06;;;;;;;5.13;0.70;;;17.00;99.90;;;;;;5035263;28;20508;-90
2022/09/14 07:31:41;;;;;;;9.90;0.85;;;16.80;99.90;;;;;;5033889;28;20128;-91
2022/09/14 07:34:07;;;;;;;4.22;1.10;;;16.90;99.90;;;;;;5036148;28;20052;-91
2022/09/14 07:36:34;;;;;;;9.18;0.70;;;17.00;99.90;;;;;;5017888;28;20036;-90
2022/09/14 07:39:01;;;;;;;5.50;1.33;;;17.00;99.90;;;;;;5018826;28;20423;-90
2022/09/14 07:41:28;;;;;;;3.67;1.00;;;17.10;99.90;;;;;;5018782;28;20083;-90
2022/09/14 07:43:59;;;;;;;3.28;0.60;;;17.10;99.90;;;;;;5017509;28;20155;-90
2022/09/14 07:46:26;;;;;;;4.63;0.60;;;17.10;99.90;;;;;;5019769;28;20390;-90
2022/09/14 07:48:57;;;;;;;6.05;1.02;;;17.10;99.90;;;;;;5017635;28;20045;-91
2022/09/14 07:51:24;;;;;;;4.25;0.90;;;17.20;99.90;;;;;;5036002;28;20045;-91
2022/09/14 07:53:50;;;;;;;4.57;1.30;;;17.20;99.90;;;;;;5018120;28;20105;-91
2022/09/14 07:56:16;;;;;;;6.97;0.70;;;17.30;99.90;;;;;;5018459;28;20052;-91
2022/09/14 07:58:43;;;;;;;4.22;1.15;;;17.30;99.90;;;;;;5019811;28;20044;-91
2022/09/14 08:01:14;;;;;;;5.22;1.20;;;17.40;99.90;;;;;;5033111;28;20048;-90
2022/09/14 08:03:42;;;;;;;4.72;0.80;;;17.40;99.90;;;;;;5035252;28;20113;-89
2022/09/14 08:06:11;;;;;;;5.38;0.68;;;17.50;99.90;;;;;;5033262;28;20056;-89
2022/09/14 08:08:40;;;;;;;7.97;1.55;;;17.50;99.90;;;;;;5034869;28;20080;-89
2022/09/14 08:11:15;;;;;;;9.98;1.40;;;17.50;99.90;;;;;;5033300;28;20131;-89
2022/09/14 08:13:44;;;;;;;16.25;1.83;;;17.60;99.90;;;;;;5050097;28;20406;-88
2022/09/14 08:16:11;;;;;;;7.30;0.90;;;17.70;99.90;;;;;;5050951;28;20102;-89
2022/09/14 08:18:37;;;;;;;4.30;0.75;;;16.90;99.90;;;;;;5032962;28;20048;-89
2022/09/14 08:21:08;;;;;;;6.78;0.60;;;17.90;99.90;;;;;;5032264;28;20095;-89
2022/09/14 08:23:35;;;;;;;2.78;0.60;;;18.00;99.90;;;;;;5013399;28;20051;-89
2022/09/14 08:26:10;;;;;;;6.85;0.70;;;18.10;99.90;;;;;;5015027;28;20106;-88
2022/09/14 08:28:37;;;;;;;7.53;0.95;;;18.10;99.90;;;;;;5031330;28;20118;-89
2022/09/14 08:31:15;;;;;;;5.38;0.70;;;18.10;99.90;;;;;;4997269;28;20488;-89
2022/09/14 08:33:44;;;;;;;7.13;1.95;;;18.10;99.90;;;;;;5015066;28;20587;-88
2022/09/14 08:36:12;;;;;;;9.32;0.98;;;18.20;99.90;;;;;;5013803;28;20049;-88
2022/09/14 08:38:38;;;;;;;4.38;0.80;;;18.30;99.90;;;;;;5001617;28;20048;-88
2022/09/14 08:41:42;;;;;;;5.90;1.27;;;18.20;99.90;;;;;;5009613;28;20037;-88
2022/09/14 08:44:11;;;;;;;6.45;0.88;;;18.70;99.90;;;;;;5041198;28;20049;-88
2022/09/14 08:46:44;;;;;;;3.88;0.77;;;19.00;99.90;;;;;;5023505;28;20053;-87
2022/09/14 08:49:31;;;;;;;6.80;1.00;;;19.20;99.90;;;;;;5037980;28;20033;-88
2022/09/14 08:51:57;;;;;;;3.97;0.73;;;19.40;99.90;;;;;;5044050;28;20190;-88
2022/09/14 08:54:23;;;;;;;5.03;1.63;;;19.50;99.90;;;;;;5047774;28;20033;-89
2022/09/14 08:57:00;;;;;;;12.45;0.95;;;19.70;99.90;;;;;;5050408;28;20041;-90
2022/09/14 08:59:45;;;;;;;4.70;0.68;;;19.90;99.90;;;;;;5049331;28;20049;-89
2022/09/14 09:02:28;;;;;;;6.72;0.90;;;20.10;99.90;;;;;;5031030;28;20052;-87
2022/09/14 09:05:01;;;;;;;3.72;0.63;;;20.30;99.90;;;;;;5052414;28;20093;-88
2022/09/14 09:07:41;;;;;;;5.72;1.27;;;20.50;99.90;;;;;;5053449;28;20033;-87
2022/09/14 09:10:11;;;;;;;5.93;0.70;;;20.60;99.90;;;;;;5034014;28;20033;-87
2022/09/14 09:12:52;;;;;;;2.40;0.70;;;20.60;99.90;;;;;;5038954;28;20037;-87
2022/09/14 09:15:27;;;;;;;3.03;0.40;;;20.40;99.90;;;;;;5038168;28;20064;-87
2022/09/14 09:18:25;;;;;;;7.07;0.98;;;20.30;99.90;;;;;;5039388;28;20067;-88
2022/09/14 09:20:57;;;;;;;4.40;0.52;;;20.00;99.90;;;;;;5061303;28;20143;-87
2022/09/14 09:23:26;;;;;;;4.05;0.60;;;19.80;99.90;;;;;;5076560;28;20037;-88
2022/09/14 09:26:16;;;;;;;4.97;0.60;;;19.60;99.90;;;;;;5061187;28;20126;-87
2022/09/14 09:28:48;;;;;;;4.15;0.88;;;19.50;99.90;;;;;;5076977;28;20036;-87
2022/09/14 09:31:16;;;;;;;4.35;1.15;;;19.40;99.90;;;;;;5053387;28;20040;-87
2022/09/14 09:33:48;;;;;;;8.55;1.35;;;19.30;99.90;;;;;;5046377;28;20086;-87
2022/09/14 09:36:14;;;;;;;5.63;0.82;;;19.40;99.90;;;;;;5057860;28;20074;-88
2022/09/14 09:38:41;;;;;;;7.57;0.70;;;19.30;99.90;;;;;;5056136;28;20513;-88
2022/09/14 09:41:20;;;;;;;3.35;0.70;;;19.30;99.90;;;;;;5039584;28;20044;-87
2022/09/14 09:43:55;;;;;;;5.00;0.60;;;19.30;99.90;;;;;;5055847;28;20051;-88
2022/09/14 09:46:34;;;;;;;5.88;0.60;;;19.30;99.90;;;;;;5061687;28;20500;-89
2022/09/14 09:49:14;;;;;;;5.00;1.05;;;19.30;99.90;;;;;;5049627;28;20045;-88
2022/09/14 09:51:40;;;;;;;5.43;0.80;;;19.30;99.90;;;;;;5057892;28;20131;-88
2022/09/14 09:54:12;;;;;;;2.75;0.70;;;19.40;99.90;;;;;;5021061;28;20135;-89
2022/09/14 09:56:49;;;;;;;6.88;0.60;;;19.50;99.90;;;;;;5054881;28;20050;-88
2022/09/14 09:59:26;;;;;;;3.25;0.40;;;19.50;99.90;;;;;;5057783;28;20083;-88
2022/09/14 10:01:54;;;;;;;4.90;0.73;;;19.60;99.90;;;;;;5053801;28;20040;-88
2022/09/14 10:04:28;;;;;;;4.50;0.63;;;19.70;99.90;;;;;;5038228;28;20106;-88
2022/09/14 10:06:56;;;;;;;6.10;0.82;;;19.80;99.90;;;;;;5052060;28;20046;-89
2022/09/14 10:09:26;;;;;;;9.25;1.15;;;19.90;99.90;;;;;;5036281;28;20135;-88
2022/09/14 10:12:00;;;;;;;5.57;0.70;;;20.10;99.90;;;;;;5036112;28;20442;-89
2022/09/14 10:14:33;;;;;;;4.05;0.52;;;20.10;99.90;;;;;;5034680;28;20312;-89
2022/09/14 10:17:20;;;;;;;4.53;1.00;;;20.30;99.90;;;;;;5036966;28;20507;-89
2022/09/14 10:19:53;;;;;;;7.05;1.95;;;20.40;99.90;;;;;;5027512;28;20048;-90
2022/09/14 10:22:31;;;;;;;6.65;1.10;;;20.50;99.90;;;;;;5015666;28;20060;-90
2022/09/14 10:24:59;;;;;;;9.52;0.77;;;20.50;99.90;;;;;;5016722;28;20476;-90
2022/09/14 10:27:34;;;;;;;5.35;0.60;;;20.50;99.90;;;;;;5015482;28;20063;-90
2022/09/14 10:30:03;;;;;;;8.90;0.73;;;20.50;99.90;;;;;;5017235;28;20041;-90
2022/09/14 10:32:31;;;;;;;6.40;0.88;;;20.50;99.90;;;;;;5014295;28;20033;-90
2022/09/14 10:34:58;;;;;;;4.80;0.50;;;20.50;99.90;;;;;;5033077;28;20076;-90
2022/09/14 10:37:30;;;;;;;5.40;0.82;;;20.50;99.90;;;;;;4999353;28;20335;-90
2022/09/14 10:39:56;;;;;;;;;;;20.50;99.90;;;;;;5015586;28;20547;-90
2022/09/14 10:43:07;;;;;;;3.42;0.60;;;20.50;99.90;;;;;;5016517;28;20015;-90
2022/09/14 10:45:50;;;;;;;4.45;0.65;;;20.50;99.90;;;;;;5014631;28;20056;-90
2022/09/14 10:48:29;;;;;;;7.53;0.75;;;20.60;99.90;;;;;;5015823;28;20060;-90
2022/09/14 10:51:28;;;;;;;4.45;0.88;;;20.60;99.90;;;;;;5017243;28;20573;-90
2022/09/14 10:54:14;;;;;;;2.85;1.20;;;20.60;99.90;;;;;;5014795;28;20076;-90
2022/09/14 10:56:51;;;;;;;6.90;0.85;;;20.60;99.90;;;;;;5016471;28;20443;-90
2022/09/14 10:59:49;;;;;;;3.15;0.47;;;20.70;99.90;;;;;;5017111;28;20045;-89
2022/09/14 11:02:24;;;;;;;9.05;0.73;;;20.80;99.90;;;;;;5009866;28;20052;-90
2022/09/14 11:05:03;;;;;;;4.93;0.82;;;20.90;99.90;;;;;;5017840;28;20051;-90
2022/09/14 11:07:50;;;;;;;6.13;1.50;;;21.00;99.90;;;;;;5021514;28;20049;-92
2022/09/14 11:10:54;;;;;;;6.72;0.88;;;21.80;99.90;;;;;;5016892;28;20045;-91
2022/09/14 11:13:46;;;;;;;3.92;0.80;;;21.10;99.90;;;;;;5015197;28;20057;-90
2022/09/14 11:16:49;;;;;;;4.97;0.82;;;21.00;99.90;;;;;;5024381;28;20471;-90
2022/09/14 11:19:38;;;;;;;3.90;0.60;;;21.00;99.90;;;;;;5020512;28;20045;-90
2022/09/14 11:22:33;;;;;;;11.52;1.02;;;21.10;99.90;;;;;;5037453;28;20101;-90
2022/09/14 11:25:10;;;;;;;4.53;0.68;;;21.30;99.90;;;;;;5039264;28;20396;-91
2022/09/14 11:27:43;;;;;;;5.90;1.23;;;21.50;99.90;;;;;;5037043;28;20094;-91
2022/09/14 11:30:29;;;;;;;3.85;0.85;;;21.70;99.90;;;;;;5050948;28;20052;-96
2022/09/14 11:33:16;;;;;;;4.60;0.60;;;21.80;99.90;;;;;;5052447;28;20377;-95
2022/09/14 11:36:09;;;;;;;8.38;1.02;;;22.10;99.90;;;;;;5052576;28;20036;-95
2022/09/14 11:38:52;;;;;;;5.80;0.73;;;22.30;99.90;;;;;;5052132;28;20118;-96
2022/09/14 11:41:23;;;;;;;5.68;0.75;;;22.40;99.90;;;;;;5049199;28;20037;-94
2022/09/14 11:44:01;;;;;;;3.60;0.75;;;22.30;99.90;;;;;;5046193;28;20044;-96
2022/09/14 11:46:38;;;;;;;5.38;0.47;;;22.20;99.90;;;;;;5060969;28;20048;-95
2022/09/14 11:49:20;;;;;;;10.55;1.00;;;22.20;99.90;;;;;;5055523;28;20062;-95
2022/09/14 11:51:55;;;;;;;6.85;1.75;;;22.00;99.90;;;;;;5049660;28;20108;-94
2022/09/14 11:54:23;;;;;;;5.70;0.60;;;21.90;99.90;;;;;;5072232;28;20135;-93
2022/09/14 11:56:54;;;;;;;3.88;0.55;;;21.80;99.90;;;;;;5044287;28;20075;-91
2022/09/14 11:59:38;;;;;;;5.03;1.00;;;21.80;99.90;;;;;;5054326;28;20048;-92
2022/09/14 12:02:22;;;;;;;5.00;0.57;;;21.70;99.90;;;;;;5034221;28;20033;-89
2022/09/14 12:05:06;;;;;;;6.32;0.70;;;21.80;99.90;;;;;;5033467;28;20040;-84
2022/09/14 12:07:38;;;;;;;4.38;0.77;;;21.90;99.10;;;;;;5050453;28;20448;-85
2022/09/14 12:10:13;;;;;;;9.07;0.80;;;21.90;99.30;;;;;;5049253;28;20132;-85
2022/09/14 12:13:02;;;;;;;2.92;0.40;;;22.10;99.20;;;;;;5050379;28;20052;-87
2022/09/14 12:15:28;;;;;;;7.38;0.65;;;22.20;99.40;;;;;;5018314;28;20063;-83
2022/09/14 12:18:20;;;;;;;6.22;0.88;;;22.40;99.70;;;;;;5052153;28;20044;-87
2022/09/14 12:20:51;;;;;;;4.30;0.63;;;22.60;98.50;;;;;;5017188;28;20067;-89
2022/09/14 12:23:36;;;;;;;4.90;0.85;;;22.60;99.20;;;;;;5012833;28;20676;-89
2022/09/14 12:26:05;;;;;;;5.35;1.08;;;22.70;98.70;;;;;;5014786;28;20049;-90
2022/09/14 12:28:34;;;;;;;3.58;1.05;;;22.70;98.40;;;;;;5016375;28;20730;-89
2022/09/14 12:31:31;;;;;;;2.53;0.35;;;22.70;97.60;;;;;;5039338;28;20056;-95
2022/09/14 12:34:14;;;;;;;7.93;0.80;;;22.60;97.50;;;;;;5035937;28;20051;-96
2022/09/14 12:36:43;;;;;;;5.00;0.60;;;22.40;97.00;;;;;;5036199;28;20048;-96
2022/09/14 12:39:33;;;;;;;2.72;0.50;;;22.20;97.90;;;;;;5040094;28;20052;-93
2022/09/14 12:42:22;;;;;;;2.28;0.43;;;22.20;97.60;;;;;;5031590;28;20136;-94
2022/09/14 12:44:51;;;;;;;6.65;0.70;;;22.10;98.80;;;;;;5036431;28;20057;-94
2022/09/14 12:47:23;;;;;;;8.48;0.90;;;22.00;98.60;;;;;;5038022;28;20104;-96
2022/09/14 12:49:49;;;;;;;6.07;1.08;;;22.00;98.40;;;;;;5035330;28;20454;-93
2022/09/14 12:52:38;;;;;;;6.93;0.68;;;21.90;99.10;;;;;;5020085;28;20055;-95
2022/09/14 12:55:31;;;;;;;2.33;0.43;;;21.90;98.40;;;;;;5020935;28;20053;-94
2022/09/14 12:58:04;;;;;;;;;;;21.70;98.90;;;;;;5032664;28;20045;-96
2022/09/14 13:00:44;;;;;;;4.07;0.50;;;21.50;97.90;;;;;;5033586;28;19964;-96
2022/09/14 13:03:42;;;;;;;5.75;0.52;;;21.30;99.90;;;;;;5044900;28;20104;-95
2022/09/14 13:06:12;;;;;;;4.57;0.47;;;21.20;99.20;;;;;;5033554;28;20080;-93
2022/09/14 13:08:47;;;;;;;5.05;0.77;;;21.00;99.60;;;;;;5013840;28;20067;-93
2022/09/14 13:11:46;;;;;;;5.10;0.50;;;20.90;99.70;;;;;;5032706;28;20052;-95
2022/09/14 13:14:18;;;;;;;4.03;0.68;;;20.80;99.90;;;;;;5029324;28;20635;-93